createdAt,value
2022-12-11T00:00:30.117Z,20.20
2022-12-11T00:02:57.831Z,20.10
2022-12-11T00:05:25.297Z,20.10
2022-12-11T00:07:52.786Z,20.10
2022-12-11T00:10:20.393Z,20.10
2022-12-11T00:12:47.784Z,20.10
2022-12-11T00:15:15.266Z,20.10
2022-12-11T00:17:42.735Z,20.10
2022-12-11T00:20:10.480Z,20.10
2022-12-11T00:22:37.989Z,20.10
2022-12-11T00:25:05.792Z,20.00
2022-12-11T00:27:33.249Z,20.10
2022-12-11T00:30:00.772Z,20.00
2022-12-11T00:32:28.600Z,20.00
2022-12-11T00:34:56.263Z,20.00
2022-12-11T00:37:24.001Z,20.00
2022-12-11T00:39:51.506Z,19.90
2022-12-11T00:42:18.894Z,19.90
2022-12-11T00:44:46.330Z,19.90
2022-12-11T00:47:13.945Z,19.90
2022-12-11T00:49:46.477Z,19.90
2022-12-11T00:52:18.165Z,19.90
2022-12-11T00:54:45.905Z,19.80
2022-12-11T00:57:13.350Z,19.80
2022-12-11T00:59:40.884Z,19.90
2022-12-11T01:02:08.326Z,19.80
2022-12-11T01:04:37.263Z,19.80
2022-12-11T01:07:04.770Z,19.80
2022-12-11T01:09:50.965Z,19.80
2022-12-11T01:12:18.350Z,19.80
2022-12-11T01:14:45.799Z,19.70
2022-12-11T01:17:13.208Z,19.70
2022-12-11T01:19:40.726Z,19.80
2022-12-11T01:22:08.242Z,19.70
2022-12-11T01:24:35.684Z,19.70
2022-12-11T01:27:03.181Z,19.70
2022-12-11T01:29:30.789Z,19.70
2022-12-11T01:31:58.226Z,19.70
2022-12-11T01:34:25.807Z,19.70
2022-12-11T01:36:54.299Z,19.60
2022-12-11T01:39:21.768Z,19.60
2022-12-11T01:41:49.225Z,19.60
2022-12-11T01:44:16.623Z,19.60
2022-12-11T01:46:44.272Z,19.60
2022-12-11T01:49:14.204Z,19.60
2022-12-11T01:51:49.181Z,19.50
2022-12-11T01:54:19.233Z,19.50
2022-12-11T01:56:48.004Z,19.50
2022-12-11T01:59:19.106Z,19.50
2022-12-11T02:02:08.027Z,19.50
2022-12-11T02:04:38.655Z,19.40
2022-12-11T02:07:06.241Z,19.40
2022-12-11T02:09:36.208Z,19.40
2022-12-11T02:12:12.501Z,19.40
2022-12-11T02:15:11.578Z,19.40
2022-12-11T02:17:48.811Z,19.40
2022-12-11T02:20:28.196Z,19.40
2022-12-11T02:23:13.921Z,19.40
2022-12-11T02:26:12.454Z,19.30
2022-12-11T02:28:59.284Z,19.30
2022-12-11T02:31:26.683Z,19.30
2022-12-11T02:34:15.518Z,19.30
2022-12-11T02:36:49.059Z,19.30
2022-12-11T02:39:18.133Z,19.20
2022-12-11T02:41:49.709Z,19.20
2022-12-11T02:44:22.766Z,19.20
2022-12-11T02:46:52.478Z,19.20
2022-12-11T02:49:23.036Z,19.20
2022-12-11T02:51:51.900Z,19.10
2022-12-11T02:54:27.836Z,19.10
2022-12-11T02:57:04.949Z,19.10
2022-12-11T02:59:46.485Z,19.10
2022-12-11T03:02:16.042Z,19.10
2022-12-11T03:04:46.096Z,19.10
2022-12-11T03:07:23.591Z,19.10
2022-12-11T03:09:51.597Z,19.00
2022-12-11T03:12:37.025Z,19.00
2022-12-11T03:15:08.439Z,19.00
2022-12-11T03:17:42.927Z,19.00
2022-12-11T03:20:21.437Z,19.00
2022-12-11T03:22:59.349Z,19.00
2022-12-11T03:25:44.826Z,18.90
2022-12-11T03:28:41.860Z,18.90
2022-12-11T03:31:13.075Z,18.90
2022-12-11T03:33:47.777Z,18.90
2022-12-11T03:36:25.604Z,18.80
2022-12-11T03:39:06.005Z,18.80
2022-12-11T03:41:35.726Z,18.80
2022-12-11T03:44:03.667Z,18.80
2022-12-11T03:46:35.519Z,18.80
2022-12-11T03:49:08.933Z,18.80
2022-12-11T03:51:37.133Z,18.70
2022-12-11T03:54:04.826Z,18.70
2022-12-11T03:56:35.711Z,18.70
2022-12-11T03:59:03.305Z,18.70
2022-12-11T04:01:30.834Z,18.70
2022-12-11T04:03:58.471Z,18.70
2022-12-11T04:06:25.962Z,18.70
2022-12-11T04:08:53.528Z,18.60
2022-12-11T04:11:35.942Z,18.60
2022-12-11T04:14:30.661Z,18.60
2022-12-11T04:16:59.561Z,18.60
2022-12-11T04:19:45.876Z,18.60
2022-12-11T04:22:34.117Z,18.60
2022-12-11T04:25:02.563Z,18.60
2022-12-11T04:27:48.306Z,18.50
2022-12-11T04:30:19.044Z,18.50
2022-12-11T04:32:46.482Z,18.50
2022-12-11T04:35:15.100Z,18.50
2022-12-11T04:37:43.215Z,18.50
2022-12-11T04:40:14.020Z,18.50
2022-12-11T04:42:41.569Z,18.50
2022-12-11T04:45:09.896Z,18.50
2022-12-11T04:47:39.404Z,18.50
2022-12-11T04:50:09.152Z,18.50
2022-12-11T04:52:36.728Z,18.40
2022-12-11T04:55:06.025Z,18.40
2022-12-11T04:57:33.816Z,18.40
2022-12-11T05:00:02.176Z,18.40
2022-12-11T05:02:29.645Z,18.40
2022-12-11T05:04:57.134Z,18.30
2022-12-11T05:07:24.763Z,18.40
2022-12-11T05:09:52.165Z,18.40
2022-12-11T05:12:19.636Z,18.30
2022-12-11T05:14:47.087Z,18.30
2022-12-11T05:17:14.525Z,18.30
2022-12-11T05:19:42.001Z,18.30
2022-12-11T05:22:09.422Z,18.30
2022-12-11T05:24:36.817Z,18.30
2022-12-11T05:27:04.322Z,18.30
2022-12-11T05:29:31.832Z,18.30
2022-12-11T05:31:59.270Z,18.20
2022-12-11T05:34:26.764Z,18.30
2022-12-11T05:36:54.403Z,18.20
2022-12-11T05:39:21.884Z,18.20
2022-12-11T05:41:49.279Z,18.20
2022-12-11T05:44:16.704Z,18.20
2022-12-11T05:46:44.103Z,18.20
2022-12-11T05:49:11.901Z,18.20
2022-12-11T05:51:39.840Z,18.20
2022-12-11T05:54:07.680Z,18.20
2022-12-11T05:56:35.630Z,18.10
2022-12-11T05:59:04.880Z,18.10
2022-12-11T06:01:41.646Z,18.10
2022-12-11T06:04:10.970Z,18.10
2022-12-11T06:06:38.983Z,18.10
2022-12-11T06:09:07.170Z,18.00
2022-12-11T06:11:35.146Z,18.00
2022-12-11T06:14:04.297Z,18.00
2022-12-11T06:16:32.396Z,18.00
2022-12-11T06:19:00.210Z,18.00
2022-12-11T06:21:30.655Z,18.00
2022-12-11T06:24:00.526Z,18.00
2022-12-11T06:26:29.132Z,18.00
2022-12-11T06:28:56.655Z,18.00
2022-12-11T06:31:24.281Z,18.00
2022-12-11T06:33:51.816Z,18.00
2022-12-11T06:36:22.343Z,18.00
2022-12-11T06:38:50.411Z,18.00
2022-12-11T06:41:17.920Z,18.00
2022-12-11T06:43:45.518Z,18.00
2022-12-11T06:46:16.633Z,18.00
2022-12-11T06:48:45.208Z,18.00
2022-12-11T06:51:19.058Z,18.00
2022-12-11T06:53:52.305Z,17.90
2022-12-11T06:56:20.490Z,17.90
2022-12-11T06:58:47.958Z,17.90
2022-12-11T07:01:24.053Z,17.90
2022-12-11T07:03:54.616Z,17.90
2022-12-11T07:06:22.942Z,17.90
2022-12-11T07:08:50.548Z,17.90
2022-12-11T07:11:19.596Z,17.90
2022-12-11T07:13:47.154Z,17.90
2022-12-11T07:16:16.363Z,17.90
2022-12-11T07:18:48.117Z,17.90
2022-12-11T07:21:15.640Z,17.80
2022-12-11T07:23:43.060Z,17.90
2022-12-11T07:26:13.520Z,17.90
2022-12-11T07:28:41.506Z,17.90
2022-12-11T07:31:11.629Z,17.80
2022-12-11T07:33:39.355Z,17.80
2022-12-11T07:36:09.498Z,17.80
2022-12-11T07:38:37.633Z,17.70
2022-12-11T07:41:07.820Z,17.70
2022-12-11T07:43:35.851Z,17.70
2022-12-11T07:46:09.241Z,17.70
2022-12-11T07:48:39.196Z,17.70
2022-12-11T07:51:11.959Z,17.60
2022-12-11T07:53:39.614Z,17.70
2022-12-11T07:56:07.945Z,17.60
2022-12-11T07:58:36.310Z,17.70
2022-12-11T08:01:03.719Z,17.60
2022-12-11T08:03:31.213Z,17.60
2022-12-11T08:05:58.607Z,17.60
2022-12-11T08:08:26.222Z,17.60
2022-12-11T08:10:53.849Z,17.60
2022-12-11T08:13:21.318Z,17.60
2022-12-11T08:15:49.158Z,17.60
2022-12-11T08:18:16.663Z,17.60
2022-12-11T08:20:44.131Z,17.60
2022-12-11T08:23:13.399Z,17.60
2022-12-11T08:25:40.808Z,17.60
2022-12-11T08:28:08.270Z,17.60
2022-12-11T08:30:36.125Z,17.60
2022-12-11T08:33:03.574Z,17.60
2022-12-11T08:35:30.984Z,17.60
2022-12-11T08:37:58.521Z,17.60
2022-12-11T08:40:26.025Z,17.60
2022-12-11T08:42:53.483Z,17.70
2022-12-11T08:45:20.904Z,17.70
2022-12-11T08:47:48.357Z,17.70
2022-12-11T08:50:16.873Z,17.80
2022-12-11T08:52:44.322Z,17.80
2022-12-11T08:55:11.874Z,17.80
2022-12-11T08:57:39.977Z,17.80
2022-12-11T09:00:09.708Z,17.80
2022-12-11T09:02:37.243Z,17.80
2022-12-11T09:05:08.096Z,17.80
2022-12-11T09:07:36.713Z,17.90
2022-12-11T09:10:08.095Z,17.90
2022-12-11T09:12:36.062Z,17.90
2022-12-11T09:15:04.675Z,18.00
2022-12-11T09:17:32.118Z,18.00
2022-12-11T09:19:59.561Z,18.10
2022-12-11T09:22:26.952Z,18.10
2022-12-11T09:24:54.380Z,18.20
2022-12-11T09:27:22.333Z,18.20
2022-12-11T09:29:49.898Z,18.30
2022-12-11T09:32:17.498Z,18.40
2022-12-11T09:34:45.078Z,18.50
2022-12-11T09:37:12.541Z,18.60
2022-12-11T09:39:40.045Z,18.70
2022-12-11T09:42:15.957Z,18.80
2022-12-11T09:44:57.226Z,18.90
2022-12-11T09:47:36.739Z,19.00
2022-12-11T09:50:10.191Z,19.10
2022-12-11T09:53:18.966Z,19.20
2022-12-11T09:56:15.354Z,19.30
2022-12-11T09:58:54.312Z,19.40
2022-12-11T10:01:49.307Z,19.50
2022-12-11T10:04:26.178Z,19.50
2022-12-11T10:07:05.721Z,19.70
2022-12-11T10:09:51.764Z,19.70
2022-12-11T10:12:35.301Z,19.80
2022-12-11T10:15:23.768Z,19.90
2022-12-11T10:17:54.213Z,20.00
2022-12-11T10:20:36.728Z,20.10
2022-12-11T10:23:08.244Z,20.20
2022-12-11T10:25:46.177Z,20.30
2022-12-11T10:28:15.715Z,20.40
2022-12-11T10:31:07.967Z,20.40
2022-12-11T10:33:53.632Z,20.50
2022-12-11T10:36:26.913Z,20.50
2022-12-11T10:38:55.049Z,20.50
2022-12-11T10:41:32.920Z,20.60
2022-12-11T10:44:02.051Z,20.60
2022-12-11T10:46:32.517Z,20.60
2022-12-11T10:49:01.624Z,20.70
2022-12-11T10:51:31.940Z,20.70
2022-12-11T10:54:15.950Z,20.70
2022-12-11T10:56:48.488Z,20.70
2022-12-11T10:59:39.430Z,20.70
2022-12-11T11:02:16.453Z,20.70
2022-12-11T11:04:45.374Z,20.70
2022-12-11T11:07:16.992Z,20.80
2022-12-11T11:09:44.657Z,20.80
2022-12-11T11:12:27.380Z,20.80
2022-12-11T11:15:08.070Z,20.80
2022-12-11T11:17:55.865Z,20.80
2022-12-11T11:20:35.224Z,20.80
2022-12-11T11:23:11.575Z,20.80
2022-12-11T11:25:39.468Z,20.80
2022-12-11T11:28:16.049Z,20.80
2022-12-11T11:30:57.677Z,20.80
2022-12-11T11:33:25.922Z,20.70
2022-12-11T11:35:55.724Z,20.70
2022-12-11T11:38:37.989Z,20.70
2022-12-11T11:41:24.038Z,20.70
2022-12-11T11:43:53.203Z,20.70
2022-12-11T11:46:36.752Z,20.60
2022-12-11T11:49:28.404Z,20.70
2022-12-11T11:52:12.306Z,20.60
2022-12-11T11:54:54.779Z,20.60
2022-12-11T11:57:35.745Z,20.60
2022-12-11T12:00:10.927Z,20.60
2022-12-11T12:02:42.328Z,20.60
2022-12-11T12:05:13.927Z,20.60
2022-12-11T12:07:50.062Z,20.60
2022-12-11T12:10:32.067Z,20.60
2022-12-11T12:13:44.719Z,20.60
2022-12-11T12:16:22.963Z,20.60
2022-12-11T12:19:18.873Z,20.60
2022-12-11T12:21:52.116Z,20.60
2022-12-11T12:24:39.467Z,20.60
2022-12-11T12:27:43.363Z,20.60
2022-12-11T12:30:08.700Z,20.60
2022-12-11T12:32:57.895Z,20.60
2022-12-11T12:35:35.726Z,20.60
2022-12-11T12:38:25.787Z,20.60
2022-12-11T12:41:14.354Z,20.60
2022-12-11T12:44:11.249Z,20.60
2022-12-11T12:46:51.580Z,20.60
2022-12-11T12:49:33.844Z,20.60
2022-12-11T12:52:02.868Z,20.60
2022-12-11T12:54:32.225Z,20.60
2022-12-11T12:57:04.733Z,20.50
2022-12-11T12:59:32.364Z,20.50
2022-12-11T13:02:02.777Z,20.50
2022-12-11T13:04:55.918Z,20.50
2022-12-11T13:07:29.957Z,20.50
2022-12-11T13:10:07.321Z,20.50
2022-12-11T13:12:46.017Z,20.50
2022-12-11T13:15:45.904Z,20.50
2022-12-11T13:18:41.290Z,20.50
2022-12-11T13:21:27.444Z,20.50
2022-12-11T13:23:55.702Z,20.50
2022-12-11T13:26:31.243Z,20.40
2022-12-11T13:28:59.125Z,20.50
2022-12-11T13:31:36.158Z,20.50
2022-12-11T13:34:18.837Z,20.50
2022-12-11T13:36:54.737Z,20.40
2022-12-11T13:39:35.256Z,20.50
2022-12-11T13:42:06.192Z,20.40
2022-12-11T13:44:39.224Z,20.40
2022-12-11T13:47:13.370Z,20.40
2022-12-11T13:49:44.427Z,20.50
2022-12-11T13:52:19.872Z,20.40
2022-12-11T13:54:49.964Z,20.50
2022-12-11T13:57:22.210Z,20.40
2022-12-11T13:59:58.245Z,20.40
2022-12-11T14:02:30.522Z,20.50
2022-12-11T14:05:02.758Z,20.50
2022-12-11T14:07:33.692Z,20.50
2022-12-11T14:10:09.956Z,20.50
2022-12-11T14:12:37.751Z,20.50
2022-12-11T14:15:05.841Z,20.50
2022-12-11T14:17:35.535Z,20.50
2022-12-11T14:20:08.555Z,20.60
2022-12-11T14:22:36.941Z,20.60
2022-12-11T14:25:19.992Z,20.60
2022-12-11T14:27:51.418Z,20.60
2022-12-11T14:30:24.756Z,20.60
2022-12-11T14:33:00.267Z,20.60
2022-12-11T14:35:38.827Z,20.60
2022-12-11T14:38:27.204Z,20.60
2022-12-11T14:40:59.624Z,20.60
2022-12-11T14:43:29.335Z,20.70
2022-12-11T14:46:02.676Z,20.70
2022-12-11T14:48:43.200Z,20.70
2022-12-11T14:51:18.019Z,20.70
2022-12-11T14:53:50.956Z,20.70
2022-12-11T14:56:23.597Z,20.70
2022-12-11T14:59:03.976Z,20.70
2022-12-11T15:01:37.310Z,20.70
2022-12-11T15:04:06.429Z,20.70
2022-12-11T15:06:36.466Z,20.80
2022-12-11T15:09:41.684Z,20.80
2022-12-11T15:12:15.378Z,20.70
2022-12-11T15:14:56.083Z,20.80
2022-12-11T15:17:25.679Z,20.80
2022-12-11T15:20:27.435Z,20.70
2022-12-11T15:22:58.039Z,20.80
2022-12-11T15:25:28.664Z,20.70
2022-12-11T15:27:59.893Z,20.80
2022-12-11T15:30:29.944Z,20.80
2022-12-11T15:33:12.543Z,20.80
2022-12-11T15:35:52.500Z,20.80
2022-12-11T15:38:30.465Z,20.80
2022-12-11T15:40:58.375Z,20.80
2022-12-11T15:43:26.594Z,20.90
2022-12-11T15:45:54.391Z,20.90
2022-12-11T15:48:21.959Z,20.80
2022-12-11T15:50:49.518Z,20.80
2022-12-11T15:53:16.995Z,20.90
2022-12-11T15:55:44.663Z,20.90
2022-12-11T15:58:18.899Z,20.80
2022-12-11T16:00:46.620Z,20.90
2022-12-11T16:03:18.349Z,20.90
2022-12-11T16:05:46.082Z,20.90
2022-12-11T16:08:15.770Z,21.00
2022-12-11T16:10:44.558Z,21.00
2022-12-11T16:13:13.142Z,21.00
2022-12-11T16:15:43.760Z,21.00
2022-12-11T16:18:16.416Z,21.00
2022-12-11T16:20:45.320Z,21.00
2022-12-11T16:23:14.533Z,21.00
2022-12-11T16:25:43.059Z,21.10
2022-12-11T16:28:13.002Z,21.00
2022-12-11T16:30:41.336Z,21.10
2022-12-11T16:33:12.953Z,21.10
2022-12-11T16:35:42.138Z,21.00
2022-12-11T16:38:10.649Z,21.10
2022-12-11T16:40:38.583Z,21.10
2022-12-11T16:43:06.496Z,21.00
2022-12-11T16:45:34.157Z,21.00
2022-12-11T16:48:05.241Z,21.00
2022-12-11T16:50:33.604Z,21.00
2022-12-11T16:53:01.068Z,20.90
2022-12-11T16:55:28.523Z,20.90
2022-12-11T16:57:56.067Z,20.90
2022-12-11T17:00:24.594Z,20.90
2022-12-11T17:02:52.225Z,20.90
2022-12-11T17:05:19.757Z,20.90
2022-12-11T17:07:47.234Z,20.90
2022-12-11T17:10:14.940Z,20.90
2022-12-11T17:12:42.355Z,21.00
2022-12-11T17:15:10.727Z,21.00
2022-12-11T17:17:38.355Z,21.00
2022-12-11T17:20:06.488Z,21.00
2022-12-11T17:22:35.267Z,21.00
2022-12-11T17:25:02.929Z,21.00
2022-12-11T17:27:30.445Z,21.00
2022-12-11T17:29:57.985Z,21.00
2022-12-11T17:32:25.462Z,21.00
2022-12-11T17:34:52.844Z,21.00
2022-12-11T17:37:21.069Z,21.00
2022-12-11T17:39:48.673Z,21.00
2022-12-11T17:42:16.101Z,21.00
2022-12-11T17:44:45.591Z,21.00
2022-12-11T17:47:13.090Z,21.00
2022-12-11T17:49:41.219Z,21.00
2022-12-11T17:52:08.878Z,21.00
2022-12-11T17:54:36.603Z,21.00
2022-12-11T17:57:04.050Z,21.00
2022-12-11T17:59:31.751Z,21.00
2022-12-11T18:02:02.463Z,20.90
2022-12-11T18:04:30.345Z,20.90
2022-12-11T18:06:59.115Z,20.90
2022-12-11T18:09:29.020Z,20.90
2022-12-11T18:11:56.525Z,20.90
2022-12-11T18:14:25.366Z,20.90
2022-12-11T18:16:54.040Z,20.90
2022-12-11T18:19:22.896Z,20.90
2022-12-11T18:21:50.402Z,20.90
2022-12-11T18:24:17.886Z,20.90
2022-12-11T18:26:45.810Z,20.90
2022-12-11T18:29:13.569Z,20.80
2022-12-11T18:31:42.782Z,20.80
2022-12-11T18:34:11.297Z,20.80
2022-12-11T18:36:40.842Z,20.80
2022-12-11T18:39:08.491Z,20.80
2022-12-11T18:41:35.959Z,20.80
2022-12-11T18:44:09.363Z,20.80
2022-12-11T18:46:37.746Z,20.80
2022-12-11T18:49:06.461Z,20.80
2022-12-11T18:51:34.326Z,20.70
2022-12-11T18:54:01.855Z,20.70
2022-12-11T18:56:29.417Z,20.70
2022-12-11T18:58:57.031Z,20.70
2022-12-11T19:01:29.168Z,20.70
2022-12-11T19:04:03.559Z,20.70
2022-12-11T19:06:36.016Z,20.70
2022-12-11T19:09:06.160Z,20.70
2022-12-11T19:11:35.432Z,20.70
2022-12-11T19:14:06.293Z,20.70
2022-12-11T19:16:38.461Z,20.60
2022-12-11T19:19:10.222Z,20.60
2022-12-11T19:21:39.711Z,20.60
2022-12-11T19:24:08.720Z,20.60
2022-12-11T19:26:36.308Z,20.60
2022-12-11T19:29:09.117Z,20.60
2022-12-11T19:31:37.081Z,20.60
2022-12-11T19:34:05.338Z,20.60
2022-12-11T19:36:34.915Z,20.60
2022-12-11T19:39:05.033Z,20.60
2022-12-11T19:41:34.697Z,20.60
2022-12-11T19:44:02.279Z,20.60
2022-12-11T19:46:30.400Z,20.60
2022-12-11T19:48:59.666Z,20.50
2022-12-11T19:51:33.993Z,20.50
2022-12-11T19:54:05.173Z,20.60
2022-12-11T19:56:33.720Z,20.50
2022-12-11T19:59:06.556Z,20.50
2022-12-11T20:01:37.450Z,20.50
2022-12-11T20:04:12.679Z,20.50
2022-12-11T20:06:41.922Z,20.50
2022-12-11T20:09:12.606Z,20.50
2022-12-11T20:11:42.182Z,20.50
2022-12-11T20:14:15.613Z,20.50
2022-12-11T20:17:10.126Z,20.50
2022-12-11T20:19:32.777Z,20.50
2022-12-11T20:22:00.215Z,20.40
2022-12-11T20:24:27.961Z,20.40
2022-12-11T20:26:55.487Z,20.40
2022-12-11T20:29:23.487Z,20.40
2022-12-11T20:31:51.739Z,20.40
2022-12-11T20:34:20.232Z,20.40
2022-12-11T20:36:48.415Z,20.40
2022-12-11T20:39:15.969Z,20.40
2022-12-11T20:41:44.234Z,20.40
2022-12-11T20:44:13.119Z,20.40
2022-12-11T20:46:41.027Z,20.30
2022-12-11T20:49:13.130Z,20.40
2022-12-11T20:51:41.173Z,20.30
2022-12-11T20:54:08.833Z,20.30
2022-12-11T20:56:36.598Z,20.30
2022-12-11T20:59:04.162Z,20.30
2022-12-11T21:01:33.294Z,20.30
2022-12-11T21:04:01.000Z,20.30
2022-12-11T21:06:31.808Z,20.30
2022-12-11T21:09:01.209Z,20.20
2022-12-11T21:11:28.872Z,20.20
2022-12-11T21:13:56.524Z,20.20
2022-12-11T21:16:24.376Z,20.20
2022-12-11T21:18:52.188Z,20.20
2022-12-11T21:21:20.538Z,20.20
2022-12-11T21:23:47.969Z,20.20
2022-12-11T21:26:15.977Z,20.20
2022-12-11T21:28:44.274Z,20.10
2022-12-11T21:31:17.009Z,20.10
2022-12-11T21:33:45.415Z,20.10
2022-12-11T21:36:14.720Z,20.10
2022-12-11T21:38:44.055Z,20.10
2022-12-11T21:41:14.474Z,20.10
2022-12-11T21:44:14.568Z,20.10
2022-12-11T21:46:30.613Z,20.00
2022-12-11T21:48:58.141Z,20.00
2022-12-11T21:51:35.669Z,19.90
2022-12-11T21:54:06.124Z,19.90
2022-12-11T21:56:33.736Z,19.90
2022-12-11T21:59:01.790Z,19.90
2022-12-11T22:01:33.755Z,19.80
2022-12-11T22:04:01.610Z,19.80
2022-12-11T22:06:29.084Z,19.80
2022-12-11T22:08:56.943Z,19.80
2022-12-11T22:11:27.844Z,19.70
2022-12-11T22:13:55.994Z,19.70
2022-12-11T22:16:24.079Z,19.70
2022-12-11T22:18:51.643Z,19.70
2022-12-11T22:21:19.314Z,19.70
2022-12-11T22:23:47.012Z,19.60
2022-12-11T22:26:21.266Z,19.60
2022-12-11T22:28:49.552Z,19.60
2022-12-11T22:31:22.502Z,19.60
2022-12-11T22:33:53.802Z,19.60
2022-12-11T22:36:22.580Z,19.60
2022-12-11T22:38:50.153Z,19.60
2022-12-11T22:41:25.686Z,19.60
2022-12-11T22:43:53.152Z,19.50
2022-12-11T22:46:22.688Z,19.50
2022-12-11T22:48:50.439Z,19.50
2022-12-11T22:51:18.203Z,19.50
2022-12-11T22:53:45.823Z,19.50
2022-12-11T22:56:13.716Z,19.50
2022-12-11T22:58:41.797Z,19.40
2022-12-11T23:01:14.989Z,19.40
2022-12-11T23:03:45.464Z,19.40
2022-12-11T23:06:15.476Z,19.40
2022-12-11T23:08:44.131Z,19.40
2022-12-11T23:11:30.037Z,19.30
2022-12-11T23:13:57.961Z,19.30
2022-12-11T23:16:27.379Z,19.30
2022-12-11T23:18:56.058Z,19.30
2022-12-11T23:21:25.186Z,19.30
2022-12-11T23:23:52.640Z,19.20
2022-12-11T23:26:21.012Z,19.20
2022-12-11T23:28:49.375Z,19.20
2022-12-11T23:31:17.379Z,19.20
2022-12-11T23:33:45.209Z,19.20
2022-12-11T23:36:13.543Z,19.10
2022-12-11T23:38:41.611Z,19.10
2022-12-11T23:41:10.504Z,19.10
2022-12-11T23:43:38.268Z,19.10
2022-12-11T23:46:10.784Z,19.10
2022-12-11T23:48:39.489Z,19.10
2022-12-11T23:51:07.665Z,19.10
2022-12-11T23:53:35.886Z,19.10
2022-12-11T23:56:07.801Z,19.00
2022-12-11T23:58:39.020Z,19.10
